Time;durP1;ratioP1;P1;durP2;ratioP2;P2;SDS_P1;SDS_P2;PMS_P1;PMS_P2;Temp;Humidity;BMP_temperature;BMP_pressure;BME280_temperature;BME280_humidity;BME280_pressure;Samples;Min_cycle;Max_cycle;Signal;HPM_P1;HPM_P2
2021/03/03 00:00:31;;;;;;;108.35;40.52;;;;;;;-0.51;64.05;98728.24;1801667;79;26451;-84
2021/03/03 00:03:00;;;;;;;107.05;41.20;;;;;;;-0.52;64.15;98725.70;1783123;79;26305;-84
2021/03/03 00:05:27;;;;;;;102.75;41.37;;;;;;;-0.57;64.06;98731.80;1787355;78;25830;-84
2021/03/03 00:07:54;;;;;;;100.85;39.75;;;;;;;-0.63;64.19;98738.41;1787352;78;25792;-84
2021/03/03 00:10:22;;;;;;;108.32;41.00;;;;;;;-0.68;64.14;98737.87;1787416;78;26002;-83
2021/03/03 00:12:49;;;;;;;99.20;37.53;;;;;;;-0.78;64.08;98726.22;1779032;80;25748;-84
2021/03/03 00:15:17;;;;;;;96.20;39.33;;;;;;;-0.84;64.20;98727.97;1787171;78;27560;-84
2021/03/03 00:17:45;;;;;;;109.78;38.63;;;;;;;-0.87;64.27;98726.41;1778859;80;26121;-83
2021/03/03 00:20:14;;;;;;;96.92;37.85;;;;;;;-0.86;64.43;98725.92;1762166;80;25784;-84
2021/03/03 00:22:42;;;;;;;94.55;38.55;;;;;;;-0.84;64.46;98725.31;1778970;80;26256;-83
2021/03/03 00:25:10;;;;;;;87.47;36.58;;;;;;;-0.85;64.48;98730.27;1787481;78;25775;-83
2021/03/03 00:27:37;;;;;;;94.05;36.38;;;;;;;-0.83;64.54;98725.69;1779022;80;27504;-84
2021/03/03 00:30:06;;;;;;;88.47;35.50;;;;;;;-0.84;64.44;98725.31;1778939;79;26097;-84
2021/03/03 00:32:33;;;;;;;88.52;36.03;;;;;;;-0.88;64.37;98726.50;1787285;78;25814;-84
2021/03/03 00:35:01;;;;;;;88.05;35.90;;;;;;;-0.88;64.53;98722.53;1787313;80;25740;-84
2021/03/03 00:37:28;;;;;;;96.72;35.70;;;;;;;-0.90;64.61;98723.96;1787481;78;25778;-83
2021/03/03 00:39:55;;;;;;;96.65;35.75;;;;;;;-0.84;64.64;98722.66;1787470;78;28414;-83
2021/03/03 00:42:23;;;;;;;81.12;33.67;;;;;;;-0.80;64.52;98718.85;1787167;78;25690;-84
2021/03/03 00:44:50;;;;;;;90.72;34.58;;;;;;;-0.77;64.59;98718.64;1787346;80;25759;-83
2021/03/03 00:47:17;;;;;;;83.40;34.10;;;;;;;-0.80;64.54;98720.17;1787274;78;25758;-84
2021/03/03 00:49:45;;;;;;;78.25;32.70;;;;;;;-0.87;64.59;98721.10;1787366;78;25715;-84
2021/03/03 00:52:12;;;;;;;86.22;33.63;;;;;;;-0.89;64.64;98712.87;1787254;78;27497;-84
2021/03/03 00:54:39;;;;;;;76.15;32.63;;;;;;;-0.88;64.68;98713.25;1787196;80;26091;-83
2021/03/03 00:57:07;;;;;;;75.15;32.10;;;;;;;-0.90;64.62;98712.51;1787293;78;25723;-83
2021/03/03 00:59:34;;;;;;;74.80;32.90;;;;;;;-0.95;64.68;98706.67;1787287;80;26467;-83
2021/03/03 01:02:02;;;;;;;71.53;31.15;;;;;;;-1.00;64.69;98706.16;1787250;78;25880;-84
2021/03/03 01:04:29;;;;;;;78.00;31.97;;;;;;;-0.98;64.75;98705.11;1799419;78;27502;-83
2021/03/03 01:06:57;;;;;;;75.15;31.77;;;;;;;-0.97;64.80;98704.63;1801605;79;25760;-83
2021/03/03 01:09:24;;;;;;;82.80;35.38;;;;;;;-1.05;64.54;98702.97;1801617;78;25783;-83
2021/03/03 01:11:56;;;;;;;78.72;32.70;;;;;;;-1.10;64.65;98703.31;1801417;79;25831;-83
2021/03/03 01:14:24;;;;;;;79.60;32.17;;;;;;;-1.16;64.62;98696.63;1801573;79;26390;-84
2021/03/03 01:16:53;;;;;;;74.85;31.70;;;;;;;-1.20;64.69;98697.78;1801419;79;27502;-83
2021/03/03 01:19:21;;;;;;;77.05;31.73;;;;;;;-1.26;64.74;98692.92;1801566;79;25793;-83
2021/03/03 01:21:49;;;;;;;71.45;29.77;;;;;;;-1.28;64.80;98682.91;1801546;79;25799;-83
2021/03/03 01:24:16;;;;;;;70.12;29.18;;;;;;;-1.32;64.81;98688.52;1801440;78;26411;-84
2021/03/03 01:26:43;;;;;;;81.85;31.25;;;;;;;-1.37;64.76;98686.20;1801536;79;25767;-83
2021/03/03 01:29:11;;;;;;;60.28;28.32;;;;;;;-1.39;64.87;98685.93;1801536;79;28409;-82
2021/03/03 01:31:38;;;;;;;71.42;28.35;;;;;;;-1.43;64.87;98683.96;1801521;79;25690;-83
2021/03/03 01:34:06;;;;;;;65.05;26.57;;;;;;;-1.48;64.97;98686.95;1801508;78;25690;-84
2021/03/03 01:36:33;;;;;;;70.40;27.82;;;;;;;-1.47;65.09;98682.50;1801626;79;26577;-85
2021/03/03 01:39:01;;;;;;;61.42;24.82;;;;;;;-1.50;65.00;98682.70;1801610;79;25859;-84
2021/03/03 01:41:28;;;;;;;66.42;26.95;;;;;;;-1.50;65.18;98687.52;1801508;79;27308;-84
2021/03/03 01:43:55;;;;;;;69.12;27.25;;;;;;;-1.49;65.34;98682.59;1801568;79;25731;-84
2021/03/03 01:46:23;;;;;;;66.25;27.40;;;;;;;-1.47;65.50;98689.12;1801594;79;25785;-84
2021/03/03 01:48:51;;;;;;;67.37;26.75;;;;;;;-1.45;65.50;98683.24;1801577;79;26554;-84
2021/03/03 01:51:19;;;;;;;67.05;26.48;;;;;;;-1.44;65.53;98686.23;1791773;79;25749;-84
2021/03/03 01:53:46;;;;;;;68.83;28.47;;;;;;;-1.40;65.57;98685.08;1790828;79;27594;-84
2021/03/03 01:56:13;;;;;;;67.30;26.00;;;;;;;-1.37;65.53;98684.03;1790670;79;25813;-84
2021/03/03 01:58:41;;;;;;;61.65;25.97;;;;;;;-1.40;65.29;98677.14;1790904;79;26249;-84
2021/03/03 02:01:08;;;;;;;62.95;26.15;;;;;;;-1.41;65.30;98684.70;1790893;79;25768;-84
2021/03/03 02:03:39;;;;;;;67.27;26.73;;;;;;;-1.47;65.35;98682.02;1790686;78;25847;-84
2021/03/03 02:06:12;;;;;;;65.97;25.88;;;;;;;-1.47;65.43;98678.52;1790727;79;28466;-84
2021/03/03 02:08:47;;;;;;;52.03;23.07;;;;;;;-1.47;65.39;98678.52;1790504;79;25821;-83
2021/03/03 02:11:41;;;;;;;71.05;25.12;;;;;;;-1.49;65.46;98675.98;1798743;79;25745;-84
2021/03/03 02:14:16;;;;;;;61.18;25.37;;;;;;;-1.46;65.49;98670.95;1801387;79;25509;-84
2021/03/03 02:16:44;;;;;;;58.73;23.65;;;;;;;-1.51;65.34;98673.91;1801554;79;25953;-84
2021/03/03 02:19:17;;;;;;;56.90;25.52;;;;;;;-1.55;65.47;98669.77;1801468;78;27489;-84
2021/03/03 02:22:06;;;;;;;54.40;23.10;;;;;;;-1.62;65.62;98668.97;1776184;79;25777;-84
2021/03/03 02:24:53;;;;;;;51.77;23.45;;;;;;;-1.61;65.84;98664.05;1771829;79;25735;-83
2021/03/03 02:27:23;;;;;;;51.95;20.68;;;;;;;-1.61;65.75;98665.38;1801639;79;26451;-83
2021/03/03 02:29:52;;;;;;;51.80;23.62;;;;;;;-1.62;65.76;98665.00;1791526;79;25802;-82
2021/03/03 02:32:20;;;;;;;57.85;23.45;;;;;;;-1.67;65.67;98660.48;1783694;79;27479;-83
2021/03/03 02:34:49;;;;;;;50.00;21.73;;;;;;;-1.72;65.66;98658.64;1801354;79;26101;-84
2021/03/03 02:37:20;;;;;;;59.80;25.12;;;;;;;-1.74;65.75;98652.60;1801510;79;25732;-85
2021/03/03 02:39:48;;;;;;;56.23;23.20;;;;;;;-1.79;65.73;98656.02;1793015;79;26943;-85
2021/03/03 02:42:19;;;;;;;60.80;22.05;;;;;;;-1.75;65.93;98653.08;1801486;79;25296;-83
2021/03/03 02:44:49;;;;;;;53.60;23.10;;;;;;;-1.84;65.76;98649.27;1773427;79;27518;-84
2021/03/03 02:47:18;;;;;;;52.85;22.32;;;;;;;-1.86;65.74;98648.52;1800897;79;26263;-83
2021/03/03 02:49:46;;;;;;;59.93;23.75;;;;;;;-1.88;65.81;98649.09;1798782;79;26517;-83
2021/03/03 02:52:13;;;;;;;55.52;23.02;;;;;;;-1.90;65.86;98648.81;1790799;79;25676;-84
2021/03/03 02:54:43;;;;;;;84.13;37.20;;;;;;;-1.91;65.93;98647.96;1790800;79;25335;-82
2021/03/03 02:57:10;;;;;;;58.05;26.42;;;;;;;-1.84;65.93;98646.62;1790896;80;28479;-83
2021/03/03 02:59:39;;;;;;;81.90;36.08;;;;;;;-1.83;65.95;98646.99;1791031;79;25747;-84
2021/03/03 03:02:11;;;;;;;63.83;25.43;;;;;;;-1.79;66.03;98644.95;1797017;79;25707;-84
2021/03/03 03:04:40;;;;;;;;;;;;;;;-1.76;66.15;98646.56;1795423;79;26510;-84
2021/03/03 03:07:18;;;;;;;68.78;26.17;;;;;;;-1.75;66.23;98646.94;1787576;79;26634;-83
2021/03/03 03:09:46;;;;;;;62.67;23.55;;;;;;;-1.79;66.17;98650.73;1787432;79;27542;-82
2021/03/03 03:12:18;;;;;;;55.35;24.12;;;;;;;-1.85;66.03;98649.36;1772635;80;26406;-83
2021/03/03 03:14:48;;;;;;;51.57;22.30;;;;;;;-1.94;66.12;98650.84;1773296;79;25869;-82
2021/03/03 03:17:19;;;;;;;59.58;24.25;;;;;;;-1.99;66.16;98651.61;1755299;79;25896;-82
2021/03/03 03:19:49;;;;;;;62.58;25.35;;;;;;;-2.00;66.28;98650.39;1787346;79;25762;-82
2021/03/03 03:22:19;;;;;;;57.55;23.77;;;;;;;-2.01;66.28;98643.40;1787487;79;28391;-83
2021/03/03 03:24:47;;;;;;;56.23;23.30;;;;;;;-2.00;66.28;98644.63;1787546;79;26147;-82
2021/03/03 03:27:16;;;;;;;60.98;22.82;;;;;;;-2.04;66.36;98648.41;1787696;78;25698;-83
2021/03/03 03:29:45;;;;;;;52.53;22.98;;;;;;;-2.02;66.33;98643.87;1787526;79;26306;-84
2021/03/03 03:32:13;;;;;;;42.05;20.10;;;;;;;-2.05;66.28;98646.71;1787552;79;25731;-83
2021/03/03 03:35:00;;;;;;;46.25;20.10;;;;;;;-2.10;66.38;98640.91;1787584;79;25779;-84
2021/03/03 03:40:04;;;;;;;45.08;20.92;;;;;;;-2.13;66.44;98642.42;1665085;82;26377;-85
2021/03/03 03:42:32;;;;;;;52.88;20.35;;;;;;;-2.18;66.40;98640.58;1700331;82;25866;-85
2021/03/03 03:45:01;;;;;;;44.83;19.82;;;;;;;-2.19;66.49;98633.59;1670560;84;26395;-85
2021/03/03 03:47:28;;;;;;;41.92;18.25;;;;;;;-2.18;66.51;98633.96;1670551;84;27761;-86
2021/03/03 03:49:56;;;;;;;57.75;20.68;;;;;;;-2.16;66.51;98637.33;1670498;84;25774;-85
2021/03/03 03:52:24;;;;;;;50.23;20.20;;;;;;;-2.15;66.48;98639.02;1670547;84;25772;-85
2021/03/03 03:54:53;;;;;;;50.35;19.92;;;;;;;-2.17;66.53;98638.78;1670338;84;26450;-85
2021/03/03 03:57:22;;;;;;;55.35;21.02;;;;;;;-2.18;66.57;98633.96;1681586;84;25890;-85
2021/03/03 03:59:50;;;;;;;50.48;19.55;;;;;;;-2.19;66.55;98635.76;1673494;84;27467;-85
2021/03/03 04:02:19;;;;;;;43.73;19.57;;;;;;;-2.17;66.59;98634.81;1676738;84;26335;-85
2021/03/03 04:04:46;;;;;;;48.38;18.35;;;;;;;-2.17;66.54;98626.88;1670474;84;25737;-85
2021/03/03 04:07:13;;;;;;;56.83;22.13;;;;;;;-2.17;66.56;98631.19;1670423;84;25866;-85
2021/03/03 04:09:41;;;;;;;55.30;20.15;;;;;;;-2.16;66.49;98630.71;1670542;84;26624;-85
2021/03/03 04:12:09;;;;;;;44.60;19.32;;;;;;;-2.19;66.52;98625.17;1682294;83;27517;-85
2021/03/03 04:14:37;;;;;;;61.10;23.83;;;;;;;-2.19;66.52;98623.01;1670407;84;25812;-86
2021/03/03 04:17:04;;;;;;;60.03;22.65;;;;;;;-2.28;66.58;98624.92;1670451;84;25782;-86
2021/03/03 04:19:32;;;;;;;43.60;18.90;;;;;;;-2.24;66.61;98625.09;1666526;84;25809;-86
2021/03/03 04:21:59;;;;;;;67.03;24.52;;;;;;;-2.21;66.72;98623.10;1663503;84;26103;-87
2021/03/03 04:24:26;;;;;;;70.05;27.40;;;;;;;-2.21;66.64;98619.61;1670503;84;28477;-86
2021/03/03 04:26:53;;;;;;;67.95;25.60;;;;;;;-2.28;66.59;98620.48;1670385;84;25740;-86
2021/03/03 04:29:21;;;;;;;60.40;23.47;;;;;;;-2.32;66.65;98615.52;1693338;83;25810;-85
2021/03/03 04:31:48;;;;;;;58.35;23.15;;;;;;;-2.32;66.60;98612.39;1711018;82;25743;-85
2021/03/03 04:34:15;;;;;;;64.95;24.63;;;;;;;-2.30;66.68;98612.30;1729602;82;25760;-86
2021/03/03 04:36:42;;;;;;;56.83;24.85;;;;;;;-2.27;66.67;98608.10;1729640;82;28594;-86
2021/03/03 04:39:10;;;;;;;67.27;24.75;;;;;;;-2.29;66.64;98606.03;1711677;82;25945;-86
2021/03/03 04:41:37;;;;;;;90.67;38.83;;;;;;;-2.33;66.50;98602.77;1687694;83;26318;-84
2021/03/03 04:44:05;;;;;;;111.12;48.92;;;;;;;-2.38;66.63;98603.53;1687637;83;25795;-85
2021/03/03 04:46:32;;;;;;;92.60;38.28;;;;;;;-2.43;66.61;98604.80;1687724;83;25840;-86
2021/03/03 04:49:00;;;;;;;65.10;25.82;;;;;;;-2.43;66.73;98610.94;1687655;83;27507;-84
2021/03/03 04:51:27;;;;;;;76.30;31.73;;;;;;;-2.44;66.82;98605.75;1687567;83;26112;-84
2021/03/03 04:53:54;;;;;;;97.97;37.67;;;;;;;-2.42;66.82;98598.56;1687554;83;25776;-84
2021/03/03 04:56:22;;;;;;;127.05;46.18;;;;;;;-2.39;66.85;98600.98;1685974;83;25863;-85
2021/03/03 04:58:49;;;;;;;134.37;45.33;;;;;;;-2.37;66.83;98601.73;1678382;83;25880;-84
2021/03/03 05:01:16;;;;;;;131.10;40.60;;;;;;;-2.36;66.82;98598.14;1687532;83;27620;-85
2021/03/03 05:03:43;;;;;;;95.22;33.38;;;;;;;-2.38;66.74;98600.03;1709783;83;25887;-84
2021/03/03 05:06:11;;;;;;;94.62;30.17;;;;;;;-2.40;66.76;98596.64;1706222;83;25732;-86
2021/03/03 05:08:38;;;;;;;99.32;33.05;;;;;;;-2.41;66.81;98600.23;1687637;83;25756;-86
2021/03/03 05:11:06;;;;;;;84.42;28.17;;;;;;;-2.50;66.65;98598.20;1687682;83;25895;-85
2021/03/03 05:13:34;;;;;;;72.58;25.92;;;;;;;-2.52;66.83;98594.80;1687589;83;27522;-87
2021/03/03 05:16:01;;;;;;;76.25;27.45;;;;;;;-2.49;66.87;98592.81;1687465;83;26036;-84
2021/03/03 05:18:29;;;;;;;91.75;31.37;;;;;;;-2.51;66.80;98592.54;1687663;83;25831;-84
2021/03/03 05:20:56;;;;;;;61.63;23.10;;;;;;;-2.55;66.61;98590.13;1687617;83;25859;-84
2021/03/03 05:23:30;;;;;;;68.40;22.75;;;;;;;-2.60;66.69;98588.24;1687585;83;26377;-85
2021/03/03 05:26:00;;;;;;;65.05;22.37;;;;;;;-2.68;66.86;98586.59;1687701;83;27507;-85
2021/03/03 05:28:29;;;;;;;67.62;22.90;;;;;;;-2.63;66.96;98589.75;1686967;83;25807;-85
2021/03/03 05:30:56;;;;;;;74.75;24.67;;;;;;;-2.59;67.08;98593.05;1687640;83;25738;-86
2021/03/03 05:33:31;;;;;;;77.70;28.02;;;;;;;-2.52;67.12;98583.76;1687586;83;26446;-85
2021/03/03 05:36:02;;;;;;;80.53;28.05;;;;;;;-2.45;67.26;98588.19;1687719;83;25369;-88
2021/03/03 05:38:30;;;;;;;100.10;34.27;;;;;;;-2.40;67.34;98588.70;1687587;83;28464;-84
2021/03/03 05:40:58;;;;;;;100.25;34.63;;;;;;;-2.37;67.21;98580.58;1685327;83;25798;-85
2021/03/03 05:43:26;;;;;;;131.30;42.20;;;;;;;-2.43;67.17;98581.85;1685055;83;25545;-84
2021/03/03 05:45:53;;;;;;;148.80;49.95;;;;;;;-2.49;67.26;98583.56;1685051;83;26578;-85
2021/03/03 05:48:26;;;;;;;189.57;63.80;;;;;;;-2.48;67.33;98575.16;1685267;83;25784;-86
2021/03/03 05:53:37;;;;;;;163.90;51.37;;;;;;;-2.35;67.45;98577.36;1873034;76;34764;-84
2021/03/03 05:56:09;;;;;;;145.75;49.18;;;;;;;-2.40;67.34;98574.16;1838605;77;25693;-84
2021/03/03 05:58:39;;;;;;;157.17;51.13;;;;;;;-2.39;67.29;98582.47;1804871;77;27494;-85
2021/03/03 06:01:10;;;;;;;158.85;50.43;;;;;;;-2.43;67.26;98575.71;1839432;76;25653;-85
2021/03/03 06:03:39;;;;;;;151.72;47.65;;;;;;;-2.38;67.40;98577.56;1842312;76;26072;-84
2021/03/03 06:06:06;;;;;;;131.10;44.05;;;;;;;-2.36;67.50;98579.62;1821446;77;25713;-84
2021/03/03 06:08:35;;;;;;;133.97;50.60;;;;;;;-2.32;67.63;98576.69;1844814;77;25651;-84
2021/03/03 06:11:04;;;;;;;136.32;52.98;;;;;;;-2.24;67.67;98574.84;1852437;77;27472;-84
2021/03/03 06:13:33;;;;;;;139.30;53.83;;;;;;;-2.24;67.65;98576.16;1852235;77;25726;-85
2021/03/03 06:16:00;;;;;;;141.75;53.45;;;;;;;-2.24;67.62;98576.16;1847667;77;25756;-84
2021/03/03 06:18:28;;;;;;;127.67;49.45;;;;;;;-2.22;67.72;98568.98;1849421;77;26093;-84
2021/03/03 06:20:57;;;;;;;114.88;44.60;;;;;;;-2.13;67.84;98578.93;1840421;77;25753;-84
2021/03/03 06:23:27;;;;;;;125.15;46.58;;;;;;;-2.01;67.92;98582.06;1841350;77;27486;-84
2021/03/03 06:26:14;;;;;;;120.22;46.08;;;;;;;-1.94;67.88;98575.90;1811973;77;25664;-84
2021/03/03 06:28:48;;;;;;;115.45;45.10;;;;;;;-1.89;68.00;98575.94;1838105;77;25689;-85
2021/03/03 06:31:37;;;;;;;101.80;41.48;;;;;;;-1.83;67.84;98576.85;1838918;77;25701;-84
2021/03/03 06:34:21;;;;;;;94.17;34.88;;;;;;;-1.79;67.94;98573.97;1818892;77;25822;-85
2021/03/03 06:37:05;;;;;;;92.90;37.38;;;;;;;-1.79;67.99;98568.67;1818857;77;27524;-84
2021/03/03 06:39:37;;;;;;;86.28;34.50;;;;;;;-1.81;68.03;98570.95;1829333;77;26106;-85
2021/03/03 06:42:26;;;;;;;79.12;31.90;;;;;;;-1.73;68.14;98568.27;1844354;77;26411;-85
2021/03/03 06:44:56;;;;;;;87.00;32.67;;;;;;;-1.62;68.12;98564.39;1779336;80;26230;-84
2021/03/03 06:47:24;;;;;;;85.30;33.10;;;;;;;-1.55;68.25;98569.61;1763275;79;25782;-85
2021/03/03 06:49:53;;;;;;;73.33;30.35;;;;;;;-1.44;68.26;98556.46;1785871;78;28460;-85
2021/03/03 06:52:43;;;;;;;76.90;30.85;;;;;;;-1.41;68.28;98558.90;1753159;79;25782;-84
2021/03/03 06:55:12;;;;;;;79.53;30.75;;;;;;;-1.33;68.39;98559.22;1733007;79;25741;-85
2021/03/03 06:57:40;;;;;;;85.47;34.10;;;;;;;-1.24;68.47;98555.91;1733179;79;25708;-85
2021/03/03 07:00:10;;;;;;;84.83;34.27;;;;;;;-1.16;68.52;98546.92;1756579;79;25750;-85
2021/03/03 07:02:38;;;;;;;64.92;28.17;;;;;;;-1.10;68.58;98551.80;1748192;79;28478;-83
2021/03/03 07:05:07;;;;;;;64.27;25.70;;;;;;;-0.98;68.63;98555.84;1732392;81;26320;-85
2021/03/03 07:07:34;;;;;;;59.30;24.75;;;;;;;-0.85;68.71;98548.69;1732452;79;25847;-85
2021/03/03 07:10:04;;;;;;;48.33;22.62;;;;;;;-0.73;68.77;98557.06;1753831;79;26142;-85
2021/03/03 07:12:34;;;;;;;51.80;21.65;;;;;;;-0.62;68.63;98549.16;1732362;81;25959;-85
2021/03/03 07:15:10;;;;;;;45.80;20.80;;;;;;;-0.53;68.73;98549.80;1732439;79;27460;-85
2021/03/03 07:17:44;;;;;;;39.08;20.52;;;;;;;-0.43;68.73;98544.64;1748372;81;26256;-84
2021/03/03 07:20:17;;;;;;;47.25;21.45;;;;;;;-0.26;68.78;98539.40;1736403;79;25833;-82
2021/03/03 07:22:56;;;;;;;46.35;22.25;;;;;;;-0.11;68.67;98540.38;1732478;81;25756;-84
2021/03/03 07:25:23;;;;;;;42.00;21.40;;;;;;;0.02;68.71;98539.45;1732496;81;25839;-84
2021/03/03 07:27:52;;;;;;;43.95;20.90;;;;;;;0.16;68.63;98533.92;1732445;81;27501;-85
2021/03/03 07:30:25;;;;;;;43.92;21.75;;;;;;;0.31;68.51;98529.59;1732492;81;26135;-85
2021/03/03 07:32:52;;;;;;;43.10;20.62;;;;;;;0.49;68.46;98527.77;1733744;79;25749;-84
2021/03/03 07:35:20;;;;;;;36.58;18.20;;;;;;;0.65;68.31;98525.59;1752862;79;25750;-85
2021/03/03 07:37:54;;;;;;;38.53;20.12;;;;;;;0.82;68.16;98524.27;1752812;79;26418;-86
2021/03/03 07:40:28;;;;;;;37.83;18.30;;;;;;;0.98;68.14;98527.35;1753196;79;27509;-86
2021/03/03 07:42:58;;;;;;;40.83;19.62;;;;;;;1.18;68.05;98522.61;1753912;79;25786;-86
2021/03/03 07:45:42;;;;;;;39.60;20.85;;;;;;;1.42;67.91;98523.25;1754398;81;25292;-86
2021/03/03 07:48:11;;;;;;;43.40;20.70;;;;;;;1.65;67.76;98518.67;1722326;81;25947;-86
2021/03/03 07:50:41;;;;;;;40.10;19.95;;;;;;;1.93;67.56;98514.53;1731979;81;25692;-86
2021/03/03 07:53:10;;;;;;;42.67;21.42;;;;;;;2.24;67.46;98512.73;1751383;81;28402;-86
2021/03/03 07:55:39;;;;;;;40.55;21.02;;;;;;;2.54;67.18;98514.55;1742064;79;26083;-86
2021/03/03 07:58:08;;;;;;;40.38;21.30;;;;;;;2.86;66.88;98505.06;1763552;79;25782;-86
2021/03/03 08:00:40;;;;;;;41.95;21.35;;;;;;;3.26;66.58;98508.48;1756614;79;26094;-86
2021/03/03 08:03:07;;;;;;;43.52;23.55;;;;;;;3.66;66.21;98514.20;1731184;80;25751;-86
2021/03/03 08:05:40;;;;;;;47.67;23.12;;;;;;;4.06;65.79;98501.16;1756518;80;27486;-86
2021/03/03 08:08:25;;;;;;;46.45;22.87;;;;;;;4.42;65.35;98499.52;1756346;80;26342;-86
2021/03/03 08:11:05;;;;;;;59.38;25.30;;;;;;;4.81;64.98;98501.54;1756391;80;25741;-85
2021/03/03 08:13:41;;;;;;;47.95;26.23;;;;;;;5.26;64.55;98494.86;1756285;80;26497;-86
2021/03/03 08:16:10;;;;;;;50.33;25.97;;;;;;;5.69;64.01;98488.23;1756384;80;25701;-86
2021/03/03 08:18:52;;;;;;;44.03;25.12;;;;;;;6.01;63.64;98489.04;1756187;80;27558;-86
2021/03/03 08:21:26;;;;;;;40.60;22.35;;;;;;;6.38;63.25;98480.73;1756424;80;26159;-86
2021/03/03 08:24:03;;;;;;;37.60;18.85;;;;;;;6.90;62.55;98474.42;1756435;80;25765;-86
2021/03/03 08:26:35;;;;;;;34.00;18.65;;;;;;;7.32;61.94;98467.17;1756469;80;25804;-86
2021/03/03 08:29:23;;;;;;;32.93;17.52;;;;;;;7.70;61.39;98465.71;1756526;80;25682;-86
2021/03/03 08:31:51;;;;;;;30.90;16.05;;;;;;;8.05;60.80;98463.68;1756336;80;28667;-85
2021/03/03 08:34:19;;;;;;;33.38;16.80;;;;;;;8.34;60.40;98455.91;1756404;80;25715;-85
2021/03/03 08:36:49;;;;;;;33.05;17.32;;;;;;;8.64;59.84;98452.98;1756423;80;25764;-85
2021/03/03 08:39:22;;;;;;;29.57;16.75;;;;;;;8.94;59.20;98455.36;1756462;80;25724;-85
2021/03/03 08:41:49;;;;;;;28.80;16.55;;;;;;;9.20;58.77;98449.67;1756416;80;25756;-85
2021/03/03 08:44:18;;;;;;;28.10;15.50;;;;;;;9.44;58.19;98445.98;1756371;80;28363;-85
2021/03/03 08:46:48;;;;;;;29.67;15.43;;;;;;;9.64;57.41;98444.52;1756334;80;25865;-85
2021/03/03 08:49:26;;;;;;;23.98;15.28;;;;;;;9.82;56.77;98441.49;1756351;80;25739;-86
2021/03/03 08:52:09;;;;;;;34.27;17.05;;;;;;;9.95;56.70;98430.93;1756365;80;25744;-84
2021/03/03 08:54:40;;;;;;;29.87;16.73;;;;;;;10.21;56.36;98428.69;1787578;80;25797;-86
2021/03/03 08:57:31;;;;;;;35.60;16.77;;;;;;;10.48;55.65;98425.04;1787630;80;27539;-85
2021/03/03 08:59:59;;;;;;;32.28;15.65;;;;;;;10.72;55.43;98420.70;1787474;80;25699;-85
2021/03/03 09:02:40;;;;;;;22.70;12.93;;;;;;;11.02;54.46;98420.12;1787575;80;25754;-85
2021/03/03 09:05:11;;;;;;;17.30;10.95;;;;;;;11.30;54.23;98420.25;1761769;80;25786;-85
2021/03/03 09:07:40;;;;;;;18.07;10.70;;;;;;;11.65;53.47;98413.96;1778219;80;25754;-85
2021/03/03 09:10:17;;;;;;;21.12;11.88;;;;;;;11.92;52.70;98409.66;1784197;79;27478;-86
2021/03/03 09:12:46;;;;;;;15.80;9.90;;;;;;;12.22;52.19;98407.07;1761715;80;25771;-86
2021/03/03 09:15:16;;;;;;;17.17;9.85;;;;;;;12.57;51.55;98399.79;1782193;80;25736;-86
2021/03/03 09:17:46;;;;;;;18.55;10.63;;;;;;;12.81;50.26;98401.68;1763638;80;25327;-86
2021/03/03 09:20:21;;;;;;;18.57;11.65;;;;;;;13.04;50.45;98400.84;1776563;80;25904;-86
2021/03/03 09:22:49;;;;;;;18.92;11.03;;;;;;;13.37;50.04;98400.16;1777070;80;28427;-86
2021/03/03 09:25:24;;;;;;;18.42;11.12;;;;;;;13.70;49.38;98395.63;1763199;80;25720;-86
2021/03/03 09:28:01;;;;;;;18.77;11.38;;;;;;;13.99;48.71;98393.87;1762671;79;25849;-87
2021/03/03 09:30:39;;;;;;;16.95;11.03;;;;;;;14.25;48.16;98385.40;1787647;78;25757;-86
2021/03/03 09:33:07;;;;;;;17.17;10.50;;;;;;;14.52;47.43;98380.77;1780229;78;25863;-87
2021/03/03 09:35:35;;;;;;;16.55;10.58;;;;;;;14.72;46.85;98383.75;1788001;78;27501;-87
2021/03/03 09:38:03;;;;;;;18.48;10.38;;;;;;;14.96;46.46;98379.48;1782198;78;26113;-86
2021/03/03 09:40:34;;;;;;;16.17;10.10;;;;;;;15.21;45.98;98383.66;1763303;78;25819;-87
2021/03/03 09:43:03;;;;;;;19.20;11.45;;;;;;;15.45;44.95;98376.61;1774124;79;25816;-87
2021/03/03 09:45:31;;;;;;;16.37;11.70;;;;;;;15.61;44.69;98371.18;1773830;78;25791;-87
2021/03/03 09:47:59;;;;;;;17.55;11.35;;;;;;;15.85;44.48;98370.37;1794375;78;27689;-86
2021/03/03 09:50:30;;;;;;;18.62;12.70;;;;;;;16.06;44.22;98366.45;1794764;79;26157;-87
2021/03/03 09:52:59;;;;;;;16.82;11.85;;;;;;;16.33;43.97;98363.76;1788250;78;25698;-86
2021/03/03 09:55:31;;;;;;;21.02;12.25;;;;;;;16.58;43.67;98360.45;1768893;79;25709;-86
2021/03/03 09:58:00;;;;;;;19.23;12.68;;;;;;;16.82;42.80;98371.02;1766463;79;25763;-88
2021/03/03 10:00:40;;;;;;;24.87;12.68;;;;;;;17.10;41.97;98364.18;1800412;79;28433;-87
2021/03/03 10:03:13;;;;;;;20.43;12.23;;;;;;;17.08;41.24;98362.20;1775568;79;25757;-87
2021/03/03 10:05:43;;;;;;;22.98;13.48;;;;;;;17.31;41.10;98351.39;1780646;79;25271;-87
2021/03/03 10:08:13;;;;;;;21.30;13.83;;;;;;;17.59;40.64;98354.34;1778101;79;26548;-88
2021/03/03 10:10:47;;;;;;;19.77;13.62;;;;;;;17.66;39.29;98346.61;1779236;79;25774;-87
2021/03/03 10:13:24;;;;;;;19.70;12.20;;;;;;;17.47;39.58;98345.29;1800477;79;27490;-87
2021/03/03 10:15:52;;;;;;;28.20;12.80;;;;;;;17.57;39.91;98340.09;1793688;79;25837;-87
2021/03/03 10:18:21;;;;;;;20.55;12.50;;;;;;;17.78;39.77;98337.38;1772944;79;25718;-87
2021/03/03 10:20:57;;;;;;;21.60;11.90;;;;;;;18.20;39.15;98333.20;1768735;79;25518;-88
2021/03/03 10:23:28;;;;;;;19.52;11.08;;;;;;;18.49;38.26;98332.75;1790201;79;25753;-88
2021/03/03 10:26:06;;;;;;;16.60;10.85;;;;;;;18.57;37.76;98326.94;1768792;79;27686;-88
2021/03/03 10:28:36;;;;;;;13.62;9.03;;;;;;;18.76;37.97;98325.73;1790809;79;25742;-87
2021/03/03 10:31:07;;;;;;;16.25;9.00;;;;;;;19.11;36.46;98319.31;1790177;79;25813;-88
2021/03/03 10:33:43;;;;;;;12.33;7.33;;;;;;;19.20;36.73;98320.05;1789520;79;25875;-88
2021/03/03 10:36:22;;;;;;;10.88;7.28;;;;;;;19.42;36.05;98311.99;1788326;79;25728;-87
2021/03/03 10:38:56;;;;;;;10.48;7.30;;;;;;;19.72;35.69;98298.85;1800470;79;27524;-87
2021/03/03 10:41:32;;;;;;;6.40;4.83;;;;;;;20.03;34.76;98291.14;1800449;79;25788;-88
2021/03/03 10:46:46;;;;;;;7.00;4.65;;;;;;;20.27;31.37;98284.92;1853573;76;25704;-87
2021/03/03 10:49:18;;;;;;;5.70;4.37;;;;;;;20.18;32.50;98284.49;1798859;79;25787;-87
2021/03/03 10:51:45;;;;;;;9.93;4.83;;;;;;;20.25;31.89;98276.94;1780948;79;27322;-88
2021/03/03 10:54:13;;;;;;;6.58;4.87;;;;;;;20.36;32.00;98269.72;1810744;79;25765;-88
2021/03/03 10:56:43;;;;;;;5.85;4.28;;;;;;;20.45;31.27;98267.65;1810885;79;25788;-88
2021/03/03 10:59:28;;;;;;;8.90;5.17;;;;;;;20.60;31.04;98264.83;1810906;79;25306;-88
2021/03/03 11:01:56;;;;;;;9.73;5.28;;;;;;;20.88;30.98;98258.31;1805906;79;25525;-88
2021/03/03 11:04:42;;;;;;;8.08;5.60;;;;;;;21.15;30.23;98255.02;1793993;79;27493;-89
2021/03/03 11:07:14;;;;;;;9.93;6.00;;;;;;;21.28;30.11;98251.90;1810785;79;25616;-89
2021/03/03 11:09:42;;;;;;;7.97;5.72;;;;;;;21.48;30.03;98244.41;1783569;79;25741;-89
2021/03/03 11:12:10;;;;;;;8.53;5.75;;;;;;;21.72;29.99;98240.23;1804600;79;25780;-88
2021/03/03 11:14:38;;;;;;;7.65;4.90;;;;;;;21.96;29.48;98228.30;1810866;79;26101;-88
2021/03/03 11:17:06;;;;;;;10.40;5.53;;;;;;;22.15;29.31;98228.17;1810848;79;27478;-87
2021/03/03 11:19:33;;;;;;;7.00;4.67;;;;;;;22.32;29.14;98230.75;1810650;79;25686;-88
2021/03/03 11:22:01;;;;;;;7.50;4.45;;;;;;;22.51;28.37;98222.31;1810905;79;25713;-87
2021/03/03 11:24:28;;;;;;;5.65;4.37;;;;;;;22.49;28.20;98220.37;1779999;78;26183;-88
2021/03/03 11:26:56;;;;;;;5.15;4.15;;;;;;;22.93;28.17;98212.59;1809844;79;25819;-88
2021/03/03 11:29:23;;;;;;;7.50;4.22;;;;;;;23.01;27.41;98204.34;1810731;79;27771;-88
2021/03/03 11:31:51;;;;;;;6.97;4.62;;;;;;;23.01;27.41;98204.34;1810698;79;26266;-88
2021/03/03 11:34:18;;;;;;;6.53;4.70;;;;;;;23.32;26.30;98189.50;1810723;79;25797;-88
2021/03/03 11:36:46;;;;;;;6.53;4.42;;;;;;;23.32;26.30;98189.50;1810730;79;25721;-87
2021/03/03 11:39:13;;;;;;;6.62;4.55;;;;;;;23.03;26.53;98191.14;1810747;79;25674;-88
2021/03/03 11:41:41;;;;;;;8.53;5.05;;;;;;;23.13;26.58;98180.68;1810914;78;27657;-89